sensor_id;sensor_type;location;lat;lon;timestamp;pressure;altitude;pressure_sealevel;temperature;humidity
53689;BME280;39583;54.682;30.662;2023-03-04T06:45:38;97215.72;;;0.72;100.00
53689;BME280;39583;54.682;30.662;2023-03-04T06:48:04;97210.72;;;0.89;100.00
53689;BME280;39583;54.682;30.662;2023-03-04T06:50:31;97186.09;;;0.88;98.58
53689;BME280;39583;54.682;30.662;2023-03-04T06:52:57;97182.63;;;0.88;97.30
53689;BME280;39583;54.682;30.662;2023-03-04T06:55:23;97184.44;;;0.94;96.80
53689;BME280;39583;54.682;30.662;2023-03-04T06:57:50;97185.59;;;1.05;96.35
53689;BME280;39583;54.682;30.662;2023-03-04T07:00:16;97171.56;;;1.23;96.42
53689;BME280;39583;54.682;30.662;2023-03-04T07:02:47;97197.28;;;1.22;95.21
53689;BME280;39583;54.682;30.662;2023-03-04T07:05:13;97195.91;;;1.13;94.72
53689;BME280;39583;54.682;30.662;2023-03-04T07:07:39;97174.88;;;1.18;95.21
53689;BME280;39583;54.682;30.662;2023-03-04T07:10:06;97195.47;;;1.41;95.43
53689;BME280;39583;54.682;30.662;2023-03-04T07:12:32;97181.75;;;1.69;95.85
53689;BME280;39583;54.682;30.662;2023-03-04T07:14:58;97171.53;;;1.91;95.71
53689;BME280;39583;54.682;30.662;2023-03-04T07:17:24;97173.41;;;2.09;94.42
53689;BME280;39583;54.682;30.662;2023-03-04T07:19:50;97189.19;;;2.22;93.59
53689;BME280;39583;54.682;30.662;2023-03-04T07:22:17;97180.25;;;1.98;92.07
53689;BME280;39583;54.682;30.662;2023-03-04T07:24:43;97193.22;;;1.88;92.43
53689;BME280;39583;54.682;30.662;2023-03-04T07:27:09;97180.56;;;1.46;90.71
53689;BME280;39583;54.682;30.662;2023-03-04T07:29:35;97184.38;;;1.26;91.81
53689;BME280;39583;54.682;30.662;2023-03-04T07:32:01;97173.22;;;1.17;92.61
53689;BME280;39583;54.682;30.662;2023-03-04T07:34:27;97172.75;;;1.27;93.95
53689;BME280;39583;54.682;30.662;2023-03-04T07:36:53;97155.22;;;1.26;93.97
53689;BME280;39583;54.682;30.662;2023-03-04T07:39:20;97143.47;;;1.40;94.47
53689;BME280;39583;54.682;30.662;2023-03-04T07:41:46;97159.78;;;1.43;94.12
53689;BME280;39583;54.682;30.662;2023-03-04T07:44:12;97130.53;;;1.50;94.44
53689;BME280;39583;54.682;30.662;2023-03-04T07:46:38;97103.78;;;1.52;94.78
53689;BME280;39583;54.682;30.662;2023-03-04T07:49:04;97165.81;;;2.12;94.92
53689;BME280;39583;54.682;30.662;2023-03-04T07:51:30;97153.63;;;2.23;93.82
53689;BME280;39583;54.682;30.662;2023-03-04T07:53:59;97141.94;;;2.42;94.43
53689;BME280;39583;54.682;30.662;2023-03-04T07:56:28;97142.56;;;2.26;90.03
53689;BME280;39583;54.682;30.662;2023-03-04T07:58:54;97200.59;;;2.04;89.93
53689;BME280;39583;54.682;30.662;2023-03-04T08:01:26;97209.66;;;1.53;88.72
53689;BME280;39583;54.682;30.662;2023-03-04T08:03:53;97225.81;;;0.88;89.30
53689;BME280;39583;54.682;30.662;2023-03-04T08:06:19;97207.91;;;0.52;91.09
53689;BME280;39583;54.682;30.662;2023-03-04T08:08:47;97236.66;;;0.42;91.54
53689;BME280;39583;54.682;30.662;2023-03-04T08:11:16;97216.13;;;0.31;92.88
53689;BME280;39583;54.682;30.662;2023-03-04T08:13:43;97208.44;;;0.16;93.18
53689;BME280;39583;54.682;30.662;2023-03-04T08:16:14;97204.16;;;0.22;94.15
53689;BME280;39583;54.682;30.662;2023-03-04T08:18:43;97211.66;;;0.32;94.31
53689;BME280;39583;54.682;30.662;2023-03-04T08:21:13;97212.63;;;0.37;94.60
53689;BME280;39583;54.682;30.662;2023-03-04T08:23:40;97211.91;;;0.62;95.82
53689;BME280;39583;54.682;30.662;2023-03-04T08:26:17;97192.47;;;0.81;95.46
53689;BME280;39583;54.682;30.662;2023-03-04T08:28:44;97157.75;;;0.89;94.91
53689;BME280;39583;54.682;30.662;2023-03-04T08:31:14;97209.13;;;1.44;93.60
53689;BME280;39583;54.682;30.662;2023-03-04T08:33:41;97192.91;;;1.34;92.62
53689;BME280;39583;54.682;30.662;2023-03-04T08:36:07;97190.25;;;1.59;93.20
53689;BME280;39583;54.682;30.662;2023-03-04T08:38:34;97179.38;;;1.86;92.28
53689;BME280;39583;54.682;30.662;2023-03-04T08:41:00;97172.72;;;1.95;91.15
53689;BME280;39583;54.682;30.662;2023-03-04T08:43:29;97192.84;;;2.02;90.87
53689;BME280;39583;54.682;30.662;2023-03-04T08:45:56;97179.66;;;2.14;90.84
53689;BME280;39583;54.682;30.662;2023-03-04T08:48:22;97173.63;;;2.25;91.06
53689;BME280;39583;54.682;30.662;2023-03-04T08:50:49;97174.50;;;2.01;88.70
53689;BME280;39583;54.682;30.662;2023-03-04T08:53:17;97176.41;;;1.94;90.07
53689;BME280;39583;54.682;30.662;2023-03-04T08:55:44;97144.78;;;1.74;91.04
53689;BME280;39583;54.682;30.662;2023-03-04T08:58:11;97197.94;;;2.04;91.07
53689;BME280;39583;54.682;30.662;2023-03-04T09:00:39;97199.88;;;2.15;91.56
53689;BME280;39583;54.682;30.662;2023-03-04T09:03:09;97205.69;;;2.42;91.71
53689;BME280;39583;54.682;30.662;2023-03-04T09:05:37;97179.91;;;2.61;91.34
53689;BME280;39583;54.682;30.662;2023-03-04T09:08:04;97194.81;;;2.92;89.42
53689;BME280;39583;54.682;30.662;2023-03-04T09:10:30;97198.31;;;3.04;89.49
53689;BME280;39583;54.682;30.662;2023-03-04T09:12:57;97200.94;;;3.46;89.75
53689;BME280;39583;54.682;30.662;2023-03-04T09:15:23;97205.69;;;3.55;88.20
53689;BME280;39583;54.682;30.662;2023-03-04T09:17:49;97209.84;;;3.40;87.31
53689;BME280;39583;54.682;30.662;2023-03-04T09:20:17;97187.53;;;2.87;87.06
53689;BME280;39583;54.682;30.662;2023-03-04T09:22:43;97193.03;;;2.74;87.55
53689;BME280;39583;54.682;30.662;2023-03-04T09:25:10;97165.19;;;2.28;86.75
53689;BME280;39583;54.682;30.662;2023-03-04T09:27:38;97200.50;;;2.47;88.58
53689;BME280;39583;54.682;30.662;2023-03-04T09:30:06;97129.81;;;2.16;88.56
53689;BME280;39583;54.682;30.662;2023-03-04T09:32:32;97144.78;;;2.11;88.23
53689;BME280;39583;54.682;30.662;2023-03-04T09:34:58;97145.66;;;2.04;88.82
53689;BME280;39583;54.682;30.662;2023-03-04T09:37:24;97185.91;;;2.38;88.82
53689;BME280;39583;54.682;30.662;2023-03-04T09:39:50;97185.41;;;2.29;89.42
53689;BME280;39583;54.682;30.662;2023-03-04T09:42:34;97199.31;;;2.43;90.67
53689;BME280;39583;54.682;30.662;2023-03-04T09:45:05;96940.38;;;1.02;90.33
53689;BME280;39583;54.682;30.662;2023-03-04T09:47:36;97201.06;;;2.97;90.06
53689;BME280;39583;54.682;30.662;2023-03-04T09:50:06;97122.97;;;2.69;88.82
53689;BME280;39583;54.682;30.662;2023-03-04T09:55:30;97174.44;;;3.86;88.98
53689;BME280;39583;54.682;30.662;2023-03-04T09:58:14;97182.97;;;4.23;87.54
53689;BME280;39583;54.682;30.662;2023-03-04T10:00:45;97095.22;;;3.53;85.68
53689;BME280;39583;54.682;30.662;2023-03-04T10:03:16;97159.88;;;3.53;84.37
53689;BME280;39583;54.682;30.662;2023-03-04T10:06:03;97173.97;;;3.31;85.22
53689;BME280;39583;54.682;30.662;2023-03-04T10:11:20;97161.25;;;2.79;85.14
53689;BME280;39583;54.682;30.662;2023-03-04T10:16:24;97163.22;;;2.84;88.02
53689;BME280;39583;54.682;30.662;2023-03-04T10:19:10;97185.38;;;3.08;87.37
53689;BME280;39583;54.682;30.662;2023-03-04T10:21:48;97170.44;;;3.07;87.25
53689;BME280;39583;54.682;30.662;2023-03-04T10:24:20;97164.34;;;3.18;87.37
53689;BME280;39583;54.682;30.662;2023-03-04T10:26:51;97133.22;;;3.07;86.63
53689;BME280;39583;54.682;30.662;2023-03-04T10:29:21;97164.81;;;3.15;86.21
53689;BME280;39583;54.682;30.662;2023-03-04T10:31:48;97179.63;;;3.22;87.09
53689;BME280;39583;54.682;30.662;2023-03-04T12:34:30;97202.56;;;0.59;87.38
53689;BME280;39583;54.682;30.662;2023-03-04T12:43:03;97174.25;;;1.41;87.74
53689;BME280;39583;54.682;30.662;2023-03-04T12:51:01;97157.75;;;0.89;88.79
53689;BME280;39583;54.682;30.662;2023-03-04T12:56:32;97161.78;;;0.98;89.99
53689;BME280;39583;54.682;30.662;2023-03-04T12:59:02;97156.59;;;1.10;90.19
53689;BME280;39583;54.682;30.662;2023-03-04T13:01:41;97163.41;;;1.24;90.10
53689;BME280;39583;54.682;30.662;2023-03-04T13:07:11;97166.28;;;1.23;88.69
53689;BME280;39583;54.682;30.662;2023-03-04T13:10:12;97161.63;;;1.18;89.40
53689;BME280;39583;54.682;30.662;2023-03-04T13:12:53;97167.13;;;1.16;88.89
53689;BME280;39583;54.682;30.662;2023-03-04T13:17:53;97163.59;;;0.98;87.81
53689;BME280;39583;54.682;30.662;2023-03-04T13:22:55;97145.19;;;0.78;88.62
53689;BME280;39583;54.682;30.662;2023-03-04T13:28:17;97150.28;;;0.48;89.22
53689;BME280;39583;54.682;30.662;2023-03-04T13:43:51;97146.16;;;0.52;88.85
53689;BME280;39583;54.682;30.662;2023-03-04T13:49:00;97149.59;;;0.21;87.78
53689;BME280;39583;54.682;30.662;2023-03-04T13:51:39;97137.50;;;-0.07;87.30
53689;BME280;39583;54.682;30.662;2023-03-04T13:54:29;97135.06;;;-0.15;88.35
53689;BME280;39583;54.682;30.662;2023-03-04T14:01:57;97118.31;;;0.05;89.46
53689;BME280;39583;54.682;30.662;2023-03-04T14:04:29;97120.13;;;0.11;88.46
53689;BME280;39583;54.682;30.662;2023-03-04T14:06:58;97123.78;;;0.10;87.92
53689;BME280;39583;54.682;30.662;2023-03-04T14:09:31;97122.16;;;0.15;88.12
53689;BME280;39583;54.682;30.662;2023-03-04T14:12:13;97121.94;;;0.17;87.41
53689;BME280;39583;54.682;30.662;2023-03-04T14:14:44;97132.31;;;0.12;87.04
53689;BME280;39583;54.682;30.662;2023-03-04T14:17:20;97110.81;;;0.02;87.12
53689;BME280;39583;54.682;30.662;2023-03-04T14:19:48;97094.78;;;-0.10;86.71
53689;BME280;39583;54.682;30.662;2023-03-04T14:25:18;97131.78;;;-0.04;87.02
53689;BME280;39583;54.682;30.662;2023-03-04T14:27:46;97129.94;;;-0.03;87.25
53689;BME280;39583;54.682;30.662;2023-03-04T14:30:24;97131.97;;;0.02;87.28
53689;BME280;39583;54.682;30.662;2023-03-04T14:32:52;97129.94;;;0.04;87.28
53689;BME280;39583;54.682;30.662;2023-03-04T14:35:27;97134.84;;;-0.07;86.83
53689;BME280;39583;54.682;30.662;2023-03-04T14:40:30;97131.47;;;-0.40;86.55
53689;BME280;39583;54.682;30.662;2023-03-04T14:43:02;97131.13;;;-0.64;86.26
53689;BME280;39583;54.682;30.662;2023-03-04T14:45:29;97128.31;;;-0.82;86.01
53689;BME280;39583;54.682;30.662;2023-03-04T14:48:00;97123.84;;;-0.95;86.85
53689;BME280;39583;54.682;30.662;2023-03-04T14:50:30;97107.38;;;-1.23;86.19
53689;BME280;39583;54.682;30.662;2023-03-04T14:55:35;97133.59;;;-1.08;88.53
53689;BME280;39583;54.682;30.662;2023-03-04T14:58:15;97132.38;;;-1.06;88.61
53689;BME280;39583;54.682;30.662;2023-03-04T15:00:45;97121.19;;;-1.08;88.59
53689;BME280;39583;54.682;30.662;2023-03-04T15:03:25;97126.69;;;-1.09;87.66
53689;BME280;39583;54.682;30.662;2023-03-04T15:05:54;97130.53;;;-1.19;87.47
53689;BME280;39583;54.682;30.662;2023-03-04T15:08:28;97123.44;;;-1.18;87.71
53689;BME280;39583;54.682;30.662;2023-03-04T15:11:03;97138.88;;;-1.28;86.81
53689;BME280;39583;54.682;30.662;2023-03-04T15:13:53;97119.94;;;-1.58;86.54
53689;BME280;39583;54.682;30.662;2023-03-04T15:16:23;97140.03;;;-1.57;85.82
53689;BME280;39583;54.682;30.662;2023-03-04T15:21:31;97138.31;;;-1.91;85.88
53689;BME280;39583;54.682;30.662;2023-03-04T15:23:58;97143.19;;;-1.95;85.94
53689;BME280;39583;54.682;30.662;2023-03-04T15:26:24;97117.28;;;-2.26;86.09
53689;BME280;39583;54.682;30.662;2023-03-04T15:28:50;97158.50;;;-2.12;85.98
53689;BME280;39583;54.682;30.662;2023-03-04T15:31:21;97151.97;;;-2.22;86.32
53689;BME280;39583;54.682;30.662;2023-03-04T15:33:48;97157.88;;;-2.20;86.40
53689;BME280;39583;54.682;30.662;2023-03-04T15:36:18;97166.34;;;-2.25;86.86
53689;BME280;39583;54.682;30.662;2023-03-04T15:38:48;97161.66;;;-2.29;86.40
53689;BME280;39583;54.682;30.662;2023-03-04T15:41:23;97162.22;;;-2.41;86.29
53689;BME280;39583;54.682;30.662;2023-03-04T15:43:51;97172.28;;;-2.51;86.57
53689;BME280;39583;54.682;30.662;2023-03-04T15:46:18;97171.56;;;-2.66;86.32
53689;BME280;39583;54.682;30.662;2023-03-04T15:48:45;97170.28;;;-2.77;86.90
53689;BME280;39583;54.682;30.662;2023-03-04T15:51:14;97178.56;;;-2.80;86.67
53689;BME280;39583;54.682;30.662;2023-03-04T15:53:43;97163.88;;;-2.95;87.49
53689;BME280;39583;54.682;30.662;2023-03-04T15:56:22;97173.63;;;-2.89;87.58
53689;BME280;39583;54.682;30.662;2023-03-04T15:58:54;97167.41;;;-3.10;87.11
53689;BME280;39583;54.682;30.662;2023-03-04T16:01:21;97174.91;;;-3.07;87.58
53689;BME280;39583;54.682;30.662;2023-03-04T16:03:49;97185.22;;;-3.12;87.35
53689;BME280;39583;54.682;30.662;2023-03-04T16:06:16;97184.06;;;-3.03;88.44
53689;BME280;39583;54.682;30.662;2023-03-04T16:08:44;97179.88;;;-2.97;88.38
53689;BME280;39583;54.682;30.662;2023-03-04T16:11:22;97172.06;;;-2.84;88.06
53689;BME280;39583;54.682;30.662;2023-03-04T16:13:49;97178.38;;;-2.78;87.82
53689;BME280;39583;54.682;30.662;2023-03-04T16:16:16;97177.44;;;-2.71;88.01
53689;BME280;39583;54.682;30.662;2023-03-04T16:18:42;97167.09;;;-2.72;88.21
53689;BME280;39583;54.682;30.662;2023-03-04T16:21:15;97170.81;;;-2.60;87.75
53689;BME280;39583;54.682;30.662;2023-03-04T16:23:44;97182.63;;;-2.49;88.24
53689;BME280;39583;54.682;30.662;2023-03-04T16:26:13;97179.66;;;-2.40;88.62
53689;BME280;39583;54.682;30.662;2023-03-04T16:28:40;97170.53;;;-2.37;88.49
53689;BME280;39583;54.682;30.662;2023-03-04T16:31:11;97170.25;;;-2.21;88.40
53689;BME280;39583;54.682;30.662;2023-03-04T16:33:38;97173.09;;;-2.16;88.20
53689;BME280;39583;54.682;30.662;2023-03-04T16:36:14;97173.91;;;-2.15;87.80
53689;BME280;39583;54.682;30.662;2023-03-04T16:38:40;97158.69;;;-2.20;87.83
53689;BME280;39583;54.682;30.662;2023-03-04T16:41:15;97178.84;;;-2.05;87.97
53689;BME280;39583;54.682;30.662;2023-03-04T16:43:42;97177.44;;;-2.01;88.08
53689;BME280;39583;54.682;30.662;2023-03-04T16:46:10;97178.44;;;-1.96;87.98
53689;BME280;39583;54.682;30.662;2023-03-04T16:48:37;97133.75;;;-2.17;87.89
53689;BME280;39583;54.682;30.662;2023-03-04T16:51:12;97167.75;;;-1.88;88.11
53689;BME280;39583;54.682;30.662;2023-03-04T16:53:39;97167.94;;;-1.83;87.95
53689;BME280;39583;54.682;30.662;2023-03-04T16:56:11;97172.19;;;-1.88;87.74
53689;BME280;39583;54.682;30.662;2023-03-04T16:58:40;97169.97;;;-1.91;87.96
53689;BME280;39583;54.682;30.662;2023-03-04T17:01:14;97164.09;;;-1.87;88.33
53689;BME280;39583;54.682;30.662;2023-03-04T17:03:41;97160.25;;;-1.84;87.93
53689;BME280;39583;54.682;30.662;2023-03-04T17:06:09;97155.78;;;-1.84;88.10
53689;BME280;39583;54.682;30.662;2023-03-04T17:08:35;97158.25;;;-1.75;88.17
53689;BME280;39583;54.682;30.662;2023-03-04T17:11:01;97148.06;;;-1.85;87.78
53689;BME280;39583;54.682;30.662;2023-03-04T17:13:27;97141.56;;;-1.83;87.53
53689;BME280;39583;54.682;30.662;2023-03-04T17:15:53;97157.03;;;-1.73;87.51
53689;BME280;39583;54.682;30.662;2023-03-04T17:18:20;97159.69;;;-1.73;87.56
53689;BME280;39583;54.682;30.662;2023-03-04T17:20:46;97151.97;;;-1.74;87.37
53689;BME280;39583;54.682;30.662;2023-03-04T17:23:12;97150.13;;;-1.81;87.04
53689;BME280;39583;54.682;30.662;2023-03-04T17:25:39;97151.31;;;-1.90;86.76
53689;BME280;39583;54.682;30.662;2023-03-04T17:28:06;97151.66;;;-1.99;86.89
53689;BME280;39583;54.682;30.662;2023-03-04T17:30:32;97096.75;;;-2.37;86.26
53689;BME280;39583;54.682;30.662;2023-03-04T17:32:59;97161.53;;;-2.15;86.39
53689;BME280;39583;54.682;30.662;2023-03-04T17:35:25;97154.22;;;-2.19;86.76
53689;BME280;39583;54.682;30.662;2023-03-04T17:37:51;97157.63;;;-2.25;85.98
53689;BME280;39583;54.682;30.662;2023-03-04T17:40:17;97152.91;;;-2.37;85.75
53689;BME280;39583;54.682;30.662;2023-03-04T17:42:44;97129.91;;;-2.56;86.03
53689;BME280;39583;54.682;30.662;2023-03-04T17:45:10;97140.84;;;-2.59;85.61
53689;BME280;39583;54.682;30.662;2023-03-04T17:47:38;97143.00;;;-2.69;85.41
53689;BME280;39583;54.682;30.662;2023-03-04T17:50:06;97143.28;;;-2.85;85.39
53689;BME280;39583;54.682;30.662;2023-03-04T17:52:32;97148.28;;;-2.97;85.61
53689;BME280;39583;54.682;30.662;2023-03-04T17:55:00;97122.97;;;-3.19;86.05
53689;BME280;39583;54.682;30.662;2023-03-04T17:57:26;97140.06;;;-3.09;86.32
